Time;durP1;ratioP1;P1;durP2;ratioP2;P2;SDS_P1;SDS_P2;PMS_P1;PMS_P2;Temp;Humidity;BMP_temperature;BMP_pressure;BME280_temperature;BME280_humidity;BME280_pressure;Samples;Min_cycle;Max_cycle;Signal;HPM_P1;HPM_P2
2023/02/22 00:00:44;;;;;;;;;49.00;41.25;;;;;-147.17;100.00;-15917.19;5023757;28;52222;-68
2023/02/22 00:03:23;;;;;;;;;44.00;38.50;;;;;-147.17;100.00;-15917.19;5016206;28;52052;-68
2023/02/22 00:05:52;;;;;;;;;52.00;41.50;;;;;-147.17;100.00;-15917.19;5031723;28;51106;-67
2023/02/22 00:08:19;;;;;;;;;50.00;41.50;;;;;-147.17;100.00;-15917.19;5015756;28;51254;-67
2023/02/22 00:10:45;;;;;;;;;50.75;42.00;;;;;-147.17;100.00;-15917.19;5030073;28;51204;-65
2023/02/22 00:13:12;;;;;;;;;49.75;42.50;;;;;-147.17;100.00;-15917.19;5001079;28;53579;-66
2023/02/22 00:15:41;;;;;;;;;47.75;40.75;;;;;-147.17;100.00;-15917.19;5014213;28;51147;-67
2023/02/22 00:18:11;;;;;;;;;50.75;39.75;;;;;-147.17;100.00;-15917.19;5033654;28;51060;-68
2023/02/22 00:20:39;;;;;;;;;48.75;41.25;;;;;-147.17;100.00;-15917.19;5015913;28;51276;-68
2023/02/22 00:23:07;;;;;;;;;47.50;41.00;;;;;-147.17;100.00;-15917.19;5033480;28;52008;-70
2023/02/22 00:25:33;;;;;;;;;49.25;39.25;;;;;-147.17;100.00;-15917.19;5025399;28;51149;-66
2023/02/22 00:27:59;;;;;;;;;53.50;43.25;;;;;-147.17;100.00;-15917.19;5016126;28;51192;-66
2023/02/22 00:30:27;;;;;;;;;48.25;41.25;;;;;-147.17;100.00;-15917.19;5020487;28;50837;-66
2023/02/22 00:32:54;;;;;;;;;49.50;42.00;;;;;-147.17;100.00;-15917.19;5021337;28;51765;-67
2023/02/22 00:35:23;;;;;;;;;40.75;37.75;;;;;-147.17;100.00;-15917.19;5019417;28;51185;-66
2023/02/22 00:37:51;;;;;;;;;47.00;40.75;;;;;-147.17;100.00;-15917.19;5018662;28;51087;-66
2023/02/22 00:40:22;;;;;;;;;50.50;42.00;;;;;-147.17;100.00;-15917.19;5020403;28;51139;-65
2023/02/22 00:42:48;;;;;;;;;50.00;42.25;;;;;-147.17;100.00;-15917.19;5012773;28;52366;-66
2023/02/22 00:45:22;;;;;;;;;53.25;44.00;;;;;-147.17;100.00;-15917.19;5026902;28;50898;-66
2023/02/22 00:47:48;;;;;;;;;52.25;42.00;;;;;-147.17;100.00;-15917.19;5033497;28;51024;-65
2023/02/22 00:50:17;;;;;;;;;49.25;41.00;;;;;-147.17;100.00;-15917.19;5033470;28;50959;-66
2023/02/22 00:52:43;;;;;;;;;51.00;43.00;;;;;-147.17;100.00;-15917.19;5033111;28;51133;-66
2023/02/22 00:55:14;;;;;;;;;48.25;41.25;;;;;-147.17;100.00;-15917.19;5033196;28;51008;-66
2023/02/22 00:57:40;;;;;;;;;51.00;41.50;;;;;-147.17;100.00;-15917.19;5006939;28;51114;-65
2023/02/22 01:00:11;;;;;;;;;51.00;41.25;;;;;-147.17;100.00;-15917.19;5027757;28;50939;-65
2023/02/22 01:02:42;;;;;;;;;52.00;43.00;;;;;-147.17;100.00;-15917.19;5005680;28;51829;-66
2023/02/22 01:05:11;;;;;;;;;51.00;43.00;;;;;-147.17;100.00;-15917.19;5030183;28;51160;-67
2023/02/22 01:07:37;;;;;;;;;51.25;43.00;;;;;-147.17;100.00;-15917.19;5033041;28;50969;-68
2023/02/22 01:10:03;;;;;;;;;53.00;41.75;;;;;-147.17;100.00;-15917.19;5032886;28;51261;-67
2023/02/22 01:12:29;;;;;;;;;50.75;42.75;;;;;-147.17;100.00;-15917.19;5013571;28;52655;-65
2023/02/22 01:14:55;;;;;;;;;48.25;41.25;;;;;-147.17;100.00;-15917.19;5012499;28;50896;-65
2023/02/22 01:17:22;;;;;;;;;54.50;46.00;;;;;-147.17;100.00;-15917.19;5032180;28;51211;-66
2023/02/22 01:19:47;;;;;;;;;52.00;43.25;;;;;-147.17;100.00;-15917.19;5032956;28;50989;-66
2023/02/22 01:22:13;;;;;;;;;51.75;43.50;;;;;-147.17;100.00;-15917.19;4998116;28;52248;-65
2023/02/22 01:24:38;;;;;;;;;51.50;42.00;;;;;-147.17;100.00;-15917.19;5014715;28;51118;-66
2023/02/22 01:27:03;;;;;;;;;54.25;44.50;;;;;-147.17;100.00;-15917.19;5032395;28;51027;-67
2023/02/22 01:29:29;;;;;;;;;52.75;43.50;;;;;-147.17;100.00;-15917.19;5032885;28;51467;-67
2023/02/22 01:31:55;;;;;;;;;52.25;43.50;;;;;-147.17;100.00;-15917.19;5013836;28;54252;-68
2023/02/22 01:34:22;;;;;;;;;55.00;45.75;;;;;-147.17;100.00;-15917.19;5031396;28;51009;-67
2023/02/22 01:36:48;;;;;;;;;53.00;43.00;;;;;-147.17;100.00;-15917.19;5032981;28;51157;-66
2023/02/22 01:39:16;;;;;;;;;54.25;45.25;;;;;-147.17;100.00;-15917.19;5032672;28;51271;-67
2023/02/22 01:41:43;;;;;;;;;52.75;44.25;;;;;-147.17;100.00;-15917.19;5032221;28;51822;-67
2023/02/22 01:44:31;;;;;;;;;53.00;44.75;;;;;-147.17;100.00;-15917.19;5032433;28;51054;-69
2023/02/22 01:46:59;;;;;;;;;53.25;45.00;;;;;-147.17;100.00;-15917.19;5032526;28;50967;-69
2023/02/22 01:49:29;;;;;;;;;58.50;47.25;;;;;-147.17;100.00;-15917.19;5014876;28;51284;-68
2023/02/22 01:52:01;;;;;;;;;53.75;44.75;;;;;-147.17;100.00;-15917.19;5032184;28;51185;-68
2023/02/22 01:54:38;;;;;;;;;57.25;46.75;;;;;-147.17;100.00;-15917.19;5014559;28;51117;-67
2023/02/22 01:57:14;;;;;;;;;58.00;47.00;;;;;-147.17;100.00;-15917.19;5030804;28;51263;-67
2023/02/22 01:59:45;;;;;;;;;55.75;46.00;;;;;-147.17;100.00;-15917.19;5032346;28;51169;-67
2023/02/22 02:02:12;;;;;;;;;55.50;47.00;;;;;-147.17;100.00;-15917.19;5012469;28;51872;-67
2023/02/22 02:04:41;;;;;;;;;54.25;46.00;;;;;-147.17;100.00;-15917.19;5030686;28;51153;-67
2023/02/22 02:07:10;;;;;;;;;56.25;45.50;;;;;-147.17;100.00;-15917.19;5032441;28;50913;-66
2023/02/22 02:09:44;;;;;;;;;59.25;47.75;;;;;-147.17;100.00;-15917.19;5026327;28;50980;-66
2023/02/22 02:12:13;;;;;;;;;55.00;46.50;;;;;-147.17;100.00;-15917.19;5024960;28;51867;-67
2023/02/22 02:14:40;;;;;;;;;54.00;43.75;;;;;-147.17;100.00;-15917.19;5031992;28;51105;-65
2023/02/22 02:17:08;;;;;;;;;54.50;45.50;;;;;-147.17;100.00;-15917.19;5019731;28;51032;-67
2023/02/22 02:19:44;;;;;;;;;51.25;42.75;;;;;-147.17;100.00;-15917.19;5012293;28;51336;-69
2023/02/22 02:22:48;;;;;;;;;49.25;42.00;;;;;-147.17;100.00;-15917.19;5012093;28;50933;-69
2023/02/22 02:25:25;;;;;;;;;52.25;44.50;;;;;-147.17;100.00;-15917.19;4931687;28;51278;-68
2023/02/22 02:27:59;;;;;;;;;55.25;45.25;;;;;-147.17;100.00;-15917.19;4932411;28;50930;-70
2023/02/22 02:30:48;;;;;;;;;50.50;42.50;;;;;-147.17;100.00;-15917.19;4998256;28;50953;-67
2023/02/22 02:33:28;;;;;;;;;53.50;44.75;;;;;-147.17;100.00;-15917.19;5013809;28;51886;-66
2023/02/22 02:36:15;;;;;;;;;45.75;39.00;;;;;-147.17;100.00;-15917.19;5014279;28;50975;-67
2023/02/22 02:38:54;;;;;;;;;53.25;45.00;;;;;-147.17;100.00;-15917.19;5011986;28;50998;-68
2023/02/22 02:41:28;;;;;;;;;54.75;45.50;;;;;-147.17;100.00;-15917.19;5015230;28;51481;-66
2023/02/22 02:44:01;;;;;;;;;64.75;51.75;;;;;-147.17;100.00;-15917.19;5013612;28;51887;-67
2023/02/22 02:46:46;;;;;;;;;58.75;46.50;;;;;-147.17;100.00;-15917.19;5015589;28;51079;-67
2023/02/22 02:49:18;;;;;;;;;64.00;51.00;;;;;-147.17;100.00;-15917.19;4999947;28;51047;-65
2023/02/22 02:51:49;;;;;;;;;61.25;49.75;;;;;-147.17;100.00;-15917.19;5029763;28;50915;-66
2023/02/22 02:54:15;;;;;;;;;62.75;50.75;;;;;-147.17;100.00;-15917.19;5035072;28;51946;-67
2023/02/22 02:56:44;;;;;;;;;60.00;49.25;;;;;-147.17;100.00;-15917.19;5034571;28;51055;-66
2023/02/22 02:59:34;;;;;;;;;59.00;48.50;;;;;-147.17;100.00;-15917.19;5017785;28;51105;-66
2023/02/22 03:02:20;;;;;;;;;57.50;47.50;;;;;-147.17;100.00;-15917.19;5016901;28;50942;-65
2023/02/22 03:05:07;;;;;;;;;56.75;48.50;;;;;-147.17;100.00;-15917.19;5025108;28;51817;-66
2023/02/22 03:07:59;;;;;;;;;57.00;47.25;;;;;-147.17;100.00;-15917.19;5031157;28;51023;-67
2023/02/22 03:10:25;;;;;;;;;52.75;45.00;;;;;-147.17;100.00;-15917.19;5018291;28;51166;-68
2023/02/22 03:12:57;;;;;;;;;58.50;46.00;;;;;-147.17;100.00;-15917.19;5020431;28;51138;-67
2023/02/22 03:15:47;;;;;;;;;51.75;43.50;;;;;-147.17;100.00;-15917.19;4996777;28;53266;-68
2023/02/22 03:18:52;;;;;;;;;49.25;42.75;;;;;-147.17;100.00;-15917.19;5031795;28;51191;-66
2023/02/22 03:21:39;;;;;;;;;56.75;46.50;;;;;-147.17;100.00;-15917.19;5033846;28;51167;-66
2023/02/22 03:24:11;;;;;;;;;56.75;46.25;;;;;-147.17;100.00;-15917.19;5033548;28;51264;-67
2023/02/22 03:26:58;;;;;;;;;56.75;47.00;;;;;-147.17;100.00;-15917.19;5033986;28;51208;-67
2023/02/22 03:29:27;;;;;;;;;58.75;46.00;;;;;-147.17;100.00;-15917.19;5034409;28;50891;-67
2023/02/22 03:32:00;;;;;;;;;55.50;45.75;;;;;-147.17;100.00;-15917.19;5034711;28;51091;-67
2023/02/22 03:34:34;;;;;;;;;54.00;46.00;;;;;-147.17;100.00;-15917.19;5034620;28;51281;-65
2023/02/22 03:37:07;;;;;;;;;50.50;43.00;;;;;-147.17;100.00;-15917.19;5004101;28;51339;-66
2023/02/22 03:39:37;;;;;;;;;54.25;46.00;;;;;-147.17;100.00;-15917.19;4998364;28;51124;-65
2023/02/22 03:42:25;;;;;;;;;54.00;43.50;;;;;-147.17;100.00;-15917.19;5027027;28;51102;-67
2023/02/22 03:44:54;;;;;;;;;51.75;43.00;;;;;-147.17;100.00;-15917.19;5008531;28;51357;-66
2023/02/22 03:47:31;;;;;;;;;54.00;45.50;;;;;-147.17;100.00;-15917.19;5031547;28;51902;-69
2023/02/22 03:50:05;;;;;;;;;53.75;43.75;;;;;-147.17;100.00;-15917.19;5016196;28;51102;-68
2023/02/22 03:52:34;;;;;;;;;53.00;43.75;;;;;-147.17;100.00;-15917.19;5034098;28;51161;-68
2023/02/22 03:55:03;;;;;;;;;53.00;43.75;;;;;-147.17;100.00;-15917.19;5034018;28;51287;-67
2023/02/22 03:57:33;;;;;;;;;53.50;45.25;;;;;-147.17;100.00;-15917.19;5016099;28;52467;-68
2023/02/22 03:59:58;;;;;;;;;53.25;45.00;;;;;-147.17;100.00;-15917.19;5032299;28;51065;-67
2023/02/22 04:02:24;;;;;;;;;50.00;42.00;;;;;-147.17;100.00;-15917.19;5026387;28;51090;-66
2023/02/22 04:04:49;;;;;;;;;53.75;45.00;;;;;-147.17;100.00;-15917.19;5028876;28;51416;-66
2023/02/22 04:07:15;;;;;;;;;52.75;44.75;;;;;-147.17;100.00;-15917.19;5031299;28;52143;-67
2023/02/22 04:09:41;;;;;;;;;53.00;42.75;;;;;-147.17;100.00;-15917.19;5015973;28;51094;-66
2023/02/22 04:12:07;;;;;;;;;52.50;43.25;;;;;-147.17;100.00;-15917.19;5025509;28;51082;-68
2023/02/22 04:14:33;;;;;;;;;50.50;42.50;;;;;-147.17;100.00;-15917.19;4979875;28;51070;-66
2023/02/22 04:16:58;;;;;;;;;54.50;44.25;;;;;-147.17;100.00;-15917.19;5013726;28;51722;-66
2023/02/22 04:19:24;;;;;;;;;52.50;43.00;;;;;-147.17;100.00;-15917.19;5021879;28;50913;-67
2023/02/22 04:21:50;;;;;;;;;50.00;41.75;;;;;-147.17;100.00;-15917.19;5033820;28;51105;-66
2023/02/22 04:24:15;;;;;;;;;49.75;40.50;;;;;-147.17;100.00;-15917.19;5033857;28;51058;-67
2023/02/22 04:26:41;;;;;;;;;50.00;40.00;;;;;-147.17;100.00;-15917.19;5015249;28;51759;-67
2023/02/22 04:29:09;;;;;;;;;46.75;39.50;;;;;-147.17;100.00;-15917.19;5033322;28;51205;-66
2023/02/22 04:31:34;;;;;;;;;48.50;41.50;;;;;-147.17;100.00;-15917.19;5033720;28;51146;-67
2023/02/22 04:34:02;;;;;;;;;45.75;40.25;;;;;-147.17;100.00;-15917.19;5033401;28;51082;-66
2023/02/22 04:36:30;;;;;;;;;48.75;42.00;;;;;-147.17;100.00;-15917.19;5031948;28;52858;-66
2023/02/22 04:38:57;;;;;;;;;44.00;39.00;;;;;-147.17;100.00;-15917.19;5013133;28;51006;-67
2023/02/22 04:41:22;;;;;;;;;54.25;43.00;;;;;-147.17;100.00;-15917.19;5027431;28;52094;-68
2023/02/22 04:43:47;;;;;;;;;50.25;42.25;;;;;-147.17;100.00;-15917.19;5018379;28;51110;-67
2023/02/22 04:46:13;;;;;;;;;50.00;41.00;;;;;-147.17;100.00;-15917.19;5013212;28;50993;-66
2023/02/22 04:48:38;;;;;;;;;44.50;39.75;;;;;-147.17;100.00;-15917.19;5013318;28;51229;-66
2023/02/22 04:51:04;;;;;;;;;45.00;38.50;;;;;-147.17;100.00;-15917.19;5013335;28;51200;-66
2023/02/22 04:53:30;;;;;;;;;52.25;43.00;;;;;-147.17;100.00;-15917.19;5013323;28;51301;-67
2023/02/22 04:55:55;;;;;;;;;48.00;40.75;;;;;-147.17;100.00;-15917.19;5029633;28;51108;-67
2023/02/22 04:58:21;;;;;;;;;46.25;40.00;;;;;-147.17;100.00;-15917.19;5033047;28;51021;-68
2023/02/22 05:00:46;;;;;;;;;51.25;43.25;;;;;-147.17;100.00;-15917.19;5024794;28;50997;-68
2023/02/22 05:03:11;;;;;;;;;50.00;41.50;;;;;-147.17;100.00;-15917.19;5013287;28;51052;-68
2023/02/22 05:05:37;;;;;;;;;50.75;41.75;;;;;-147.17;100.00;-15917.19;5012682;28;51000;-68
2023/02/22 05:08:03;;;;;;;;;48.50;40.25;;;;;-147.17;100.00;-15917.19;5012019;28;51079;-68
2023/02/22 05:10:28;;;;;;;;;45.75;40.00;;;;;-147.17;100.00;-15917.19;5017574;28;51244;-68
2023/02/22 05:12:53;;;;;;;;;45.00;39.50;;;;;-147.17;100.00;-15917.19;5018599;28;50982;-65
2023/02/22 05:15:21;;;;;;;;;53.50;43.50;;;;;-147.17;100.00;-15917.19;5024950;28;52075;-68
2023/02/22 05:17:46;;;;;;;;;52.25;43.25;;;;;-147.17;100.00;-15917.19;5026040;28;51276;-67
2023/02/22 05:20:33;;;;;;;;;52.25;43.50;;;;;-147.17;100.00;-15917.19;5032895;28;51283;-67
2023/02/22 05:23:01;;;;;;;;;50.25;42.00;;;;;-147.17;100.00;-15917.19;5032762;28;51207;-66
2023/02/22 05:25:26;;;;;;;;;50.00;40.75;;;;;-147.17;100.00;-15917.19;5024603;28;52104;-67
2023/02/22 05:27:54;;;;;;;;;55.25;46.25;;;;;-147.17;100.00;-15917.19;5024995;28;51200;-67
2023/02/22 05:30:23;;;;;;;;;52.75;44.00;;;;;-147.17;100.00;-15917.19;5031796;28;51420;-66
2023/02/22 05:32:49;;;;;;;;;49.25;41.00;;;;;-147.17;100.00;-15917.19;5032637;28;51150;-66
2023/02/22 05:35:15;;;;;;;;;50.25;42.75;;;;;-147.17;100.00;-15917.19;5026615;28;52172;-66
2023/02/22 05:37:40;;;;;;;;;49.00;42.25;;;;;-147.17;100.00;-15917.19;5018792;28;51216;-67
2023/02/22 05:40:06;;;;;;;;;51.50;43.00;;;;;-147.17;100.00;-15917.19;5032468;28;51143;-67
2023/02/22 05:42:32;;;;;;;;;51.75;42.75;;;;;-147.17;100.00;-15917.19;5032414;28;50982;-67
2023/02/22 05:44:59;;;;;;;;;51.75;43.25;;;;;-147.17;100.00;-15917.19;5027790;28;51909;-67
2023/02/22 05:47:24;;;;;;;;;48.75;40.25;;;;;-147.17;100.00;-15917.19;5025732;28;51010;-68
2023/02/22 05:49:49;;;;;;;;;52.25;44.25;;;;;-147.17;100.00;-15917.19;5012506;28;51000;-67
2023/02/22 05:52:15;;;;;;;;;50.00;40.75;;;;;-147.17;100.00;-15917.19;5012453;28;51352;-66
2023/02/22 05:54:40;;;;;;;;;53.50;44.25;;;;;-147.17;100.00;-15917.19;5011894;28;51468;-67
2023/02/22 05:57:06;;;;;;;;;54.25;45.50;;;;;-147.17;100.00;-15917.19;5014136;28;51181;-66
2023/02/22 05:59:32;;;;;;;;;50.00;43.00;;;;;-147.17;100.00;-15917.19;5030973;28;51116;-66
2023/02/22 06:01:57;;;;;;;;;49.00;41.00;;;;;-147.17;100.00;-15917.19;5025463;28;51108;-68
2023/02/22 06:04:23;;;;;;;;;50.00;42.50;;;;;-147.17;100.00;-15917.19;5021810;28;51771;-66
2023/02/22 06:06:48;;;;;;;;;52.25;43.50;;;;;-147.17;100.00;-15917.19;5029892;28;51201;-66
2023/02/22 06:09:13;;;;;;;;;54.25;42.00;;;;;-147.17;100.00;-15917.19;5014546;28;51652;-66
2023/02/22 06:11:39;;;;;;;;;52.00;44.00;;;;;-147.17;100.00;-15917.19;5012006;28;51298;-65
2023/02/22 06:14:04;;;;;;;;;48.25;41.75;;;;;-147.17;100.00;-15917.19;5011884;28;51670;-68
2023/02/22 06:16:30;;;;;;;;;50.50;42.00;;;;;-147.17;100.00;-15917.19;5015034;28;51186;-69
2023/02/22 06:18:56;;;;;;;;;33.00;30.00;;;;;-147.17;100.00;-15917.19;5027319;28;51285;-69
2023/02/22 06:21:22;;;;;;;;;49.75;42.75;;;;;-147.17;100.00;-15917.19;5012379;28;51230;-67
2023/02/22 06:23:47;;;;;;;;;44.75;40.00;;;;;-147.17;100.00;-15917.19;5027741;28;51659;-67
2023/02/22 06:26:16;;;;;;;;;50.50;41.75;;;;;-147.17;100.00;-15917.19;5016324;28;51371;-66
2023/02/22 06:28:41;;;;;;;;;53.50;44.00;;;;;-147.17;100.00;-15917.19;5023543;28;51280;-67
2023/02/22 06:31:07;;;;;;;;;51.25;40.50;;;;;-147.17;100.00;-15917.19;5025284;28;51075;-67
2023/02/22 06:33:32;;;;;;;;;50.50;43.50;;;;;-147.17;100.00;-15917.19;5031179;28;51310;-67
2023/02/22 06:35:58;;;;;;;;;48.75;41.00;;;;;-147.17;100.00;-15917.19;5022152;28;50996;-66
2023/02/22 06:38:24;;;;;;;;;52.25;43.75;;;;;-147.17;100.00;-15917.19;5027924;28;51074;-66
2023/02/22 06:40:50;;;;;;;;;52.00;43.00;;;;;-147.17;100.00;-15917.19;5015061;28;51180;-68
2023/02/22 06:43:16;;;;;;;;;48.75;41.50;;;;;-147.17;100.00;-15917.19;5020738;28;51875;-69
2023/02/22 06:45:42;;;;;;;;;49.75;43.00;;;;;-147.17;100.00;-15917.19;5006661;28;51079;-67
2023/02/22 06:48:08;;;;;;;;;73.00;58.00;;;;;-147.17;100.00;-15917.19;5019436;28;51207;-69
2023/02/22 06:50:33;;;;;;;;;50.75;43.25;;;;;-147.17;100.00;-15917.19;5015674;28;51067;-69
2023/02/22 06:52:59;;;;;;;;;48.75;40.25;;;;;-147.17;100.00;-15917.19;5014870;28;51884;-67
2023/02/22 06:55:27;;;;;;;;;53.00;43.25;;;;;-147.17;100.00;-15917.19;5015486;28;50965;-69
2023/02/22 06:57:53;;;;;;;;;49.00;42.50;;;;;-147.17;100.00;-15917.19;5023386;28;51202;-68
2023/02/22 07:00:20;;;;;;;;;57.25;45.75;;;;;-147.17;100.00;-15917.19;5024359;28;51233;-67
2023/02/22 07:02:49;;;;;;;;;52.00;42.75;;;;;-147.17;100.00;-15917.19;5014571;28;51946;-68
2023/02/22 07:05:17;;;;;;;;;51.25;42.50;;;;;-147.17;100.00;-15917.19;5021264;28;51118;-67
2023/02/22 07:07:43;;;;;;;;;52.25;43.75;;;;;-147.17;100.00;-15917.19;5006574;28;51289;-68
2023/02/22 07:10:25;;;;;;;;;52.25;43.50;;;;;-147.17;100.00;-15917.19;5021834;28;51339;-68
2023/02/22 07:12:53;;;;;;;;;54.75;45.00;;;;;-147.17;100.00;-15917.19;4996079;28;53045;-69
2023/02/22 07:15:21;;;;;;;;;57.00;44.25;;;;;-147.17;100.00;-15917.19;5026963;28;51255;-67
2023/02/22 07:17:47;;;;;;;;;43.25;37.25;;;;;-147.17;100.00;-15917.19;5029354;28;51074;-67
2023/02/22 07:20:12;;;;;;;;;54.50;44.75;;;;;-147.17;100.00;-15917.19;5019428;28;51023;-68
2023/02/22 07:22:38;;;;;;;;;55.50;44.50;;;;;-147.17;100.00;-15917.19;5008714;28;51344;-68
2023/02/22 07:25:06;;;;;;;;;55.75;45.00;;;;;-147.17;100.00;-15917.19;5031890;28;51035;-69
2023/02/22 07:27:31;;;;;;;;;54.00;44.75;;;;;-147.17;100.00;-15917.19;5013412;28;51272;-68
2023/02/22 07:29:57;;;;;;;;;58.50;47.25;;;;;-147.17;100.00;-15917.19;5013709;28;51302;-68
2023/02/22 07:32:23;;;;;;;;;50.75;40.75;;;;;-147.17;100.00;-15917.19;5031315;28;52700;-69
2023/02/22 07:34:48;;;;;;;;;51.75;43.00;;;;;-147.17;100.00;-15917.19;5034292;28;51109;-68
2023/02/22 07:37:14;;;;;;;;;54.50;46.00;;;;;-147.17;100.00;-15917.19;5034368;28;50994;-67
2023/02/22 07:39:42;;;;;;;;;55.25;45.50;;;;;-147.17;100.00;-15917.19;5034408;28;50929;-67
2023/02/22 07:42:08;;;;;;;;;56.75;47.25;;;;;-147.17;100.00;-15917.19;5033774;28;51087;-67
2023/02/22 07:44:33;;;;;;;;;62.50;50.50;;;;;-147.17;100.00;-15917.19;5005562;28;51105;-66
2023/02/22 07:46:58;;;;;;;;;57.75;48.00;;;;;-147.17;100.00;-15917.19;5031474;28;50992;-68
2023/02/22 07:49:24;;;;;;;;;59.00;47.75;;;;;-147.17;100.00;-15917.19;5034096;28;51347;-67
2023/02/22 07:51:49;;;;;;;;;56.00;47.00;;;;;-147.17;100.00;-15917.19;5033597;28;52447;-67
2023/02/22 07:54:15;;;;;;;;;55.50;47.00;;;;;-147.17;100.00;-15917.19;5033659;28;50873;-66
2023/02/22 07:56:48;;;;;;;;;57.25;47.25;;;;;-147.17;100.00;-15917.19;5033675;28;50934;-68
2023/02/22 07:59:14;;;;;;;;;59.25;48.50;;;;;-147.17;100.00;-15917.19;5033860;28;51355;-68
2023/02/22 08:01:40;;;;;;;;;61.00;50.75;;;;;-147.17;100.00;-15917.19;4999134;28;53980;-66
2023/02/22 08:04:05;;;;;;;;;56.00;45.75;;;;;-147.17;100.00;-15917.19;5014052;28;50987;-67
2023/02/22 08:06:31;;;;;;;;;56.50;46.50;;;;;-147.17;100.00;-15917.19;5013917;28;51281;-67
2023/02/22 08:08:56;;;;;;;;;55.25;46.00;;;;;-147.17;100.00;-15917.19;5007753;28;51390;-66
2023/02/22 08:11:23;;;;;;;;;61.00;49.25;;;;;-147.17;100.00;-15917.19;5020631;28;51330;-68
2023/02/22 08:13:48;;;;;;;;;56.00;45.00;;;;;-147.17;100.00;-15917.19;5013808;28;51164;-67
2023/02/22 08:16:13;;;;;;;;;61.00;49.75;;;;;-147.17;100.00;-15917.19;5009239;28;50999;-67
2023/02/22 08:18:39;;;;;;;;;59.25;49.00;;;;;-147.17;100.00;-15917.19;5025257;28;51164;-66
2023/02/22 08:21:05;;;;;;;;;62.00;51.25;;;;;-147.17;100.00;-15917.19;5032944;28;51682;-68
2023/02/22 08:23:31;;;;;;;;;61.75;51.00;;;;;-147.17;100.00;-15917.19;5033352;28;51086;-67
2023/02/22 08:26:06;;;;;;;;;60.50;50.50;;;;;-147.17;100.00;-15917.19;5032988;28;51181;-66
2023/02/22 08:28:32;;;;;;;;;64.00;50.00;;;;;-147.17;100.00;-15917.19;5033595;28;51294;-66
2023/02/22 08:30:57;;;;;;;;;57.50;49.00;;;;;-147.17;100.00;-15917.19;5001374;28;53684;-67
2023/02/22 08:33:23;;;;;;;;;57.50;46.50;;;;;-147.17;100.00;-15917.19;5021391;28;50976;-68
2023/02/22 08:35:49;;;;;;;;;64.25;52.00;;;;;-147.17;100.00;-15917.19;5014272;28;51292;-68
2023/02/22 08:38:19;;;;;;;;;61.25;48.75;;;;;-147.17;100.00;-15917.19;5021329;28;51100;-67
2023/02/22 08:40:47;;;;;;;;;68.25;55.50;;;;;-147.17;100.00;-15917.19;5011784;28;51451;-67
2023/02/22 08:43:12;;;;;;;;;69.00;55.25;;;;;-147.17;100.00;-15917.19;5012899;28;50972;-67
2023/02/22 08:45:38;;;;;;;;;60.75;49.00;;;;;-147.17;100.00;-15917.19;5013376;28;50973;-69
2023/02/22 08:48:04;;;;;;;;;61.25;50.75;;;;;-147.17;100.00;-15917.19;5013525;28;50990;-68
2023/02/22 08:50:32;;;;;;;;;65.00;52.50;;;;;-147.17;100.00;-15917.19;5014649;28;51898;-67
2023/02/22 08:53:00;;;;;;;;;62.00;50.00;;;;;-147.17;100.00;-15917.19;5018945;28;51112;-67
2023/02/22 08:55:28;;;;;;;;;59.75;46.75;;;;;-147.17;100.00;-15917.19;5019909;28;51070;-66
2023/02/22 08:57:54;;;;;;;;;65.50;52.00;;;;;-147.17;100.00;-15917.19;5033131;28;51081;-67
2023/02/22 09:00:24;;;;;;;;;64.75;52.75;;;;;-147.17;100.00;-15917.19;5021612;28;51832;-67
2023/02/22 09:02:50;;;;;;;;;61.00;49.25;;;;;-147.17;100.00;-15917.19;5027506;28;51090;-67
2023/02/22 09:05:16;;;;;;;;;60.00;50.25;;;;;-147.17;100.00;-15917.19;5033004;28;51064;-67
2023/02/22 09:07:42;;;;;;;;;56.50;45.25;;;;;-147.17;100.00;-15917.19;5015057;28;51281;-67
2023/02/22 09:10:14;;;;;;;;;60.50;49.00;;;;;-147.17;100.00;-15917.19;5032559;28;51037;-66
2023/02/22 09:12:40;;;;;;;;;60.25;50.50;;;;;-147.17;100.00;-15917.19;5017083;28;51136;-67
2023/02/22 09:15:06;;;;;;;;;68.25;54.25;;;;;-147.17;100.00;-15917.19;5012858;28;50969;-68
2023/02/22 09:17:31;;;;;;;;;65.50;51.50;;;;;-147.17;100.00;-15917.19;5001893;28;51191;-68
2023/02/22 09:19:57;;;;;;;;;64.00;51.75;;;;;-147.17;100.00;-15917.19;5014604;28;53483;-67
2023/02/22 09:22:22;;;;;;;;;65.25;52.75;;;;;-147.17;100.00;-15917.19;5032607;28;50856;-67
2023/02/22 09:24:48;;;;;;;;;65.00;52.25;;;;;-147.17;100.00;-15917.19;5014701;28;50985;-67
2023/02/22 09:27:13;;;;;;;;;65.00;52.25;;;;;-147.17;100.00;-15917.19;5032121;28;51143;-67
2023/02/22 09:29:39;;;;;;;;;62.50;50.50;;;;;-147.17;100.00;-15917.19;5032273;28;52786;-66
2023/02/22 09:32:04;;;;;;;;;58.00;48.00;;;;;-147.17;100.00;-15917.19;5032289;28;51105;-68
2023/02/22 09:34:34;;;;;;;;;61.25;51.00;;;;;-147.17;100.00;-15917.19;5032722;28;51040;-67
2023/02/22 09:37:00;;;;;;;;;60.25;50.00;;;;;-147.17;100.00;-15917.19;5032618;28;51311;-66
2023/02/22 09:39:25;;;;;;;;;59.50;49.00;;;;;-147.17;100.00;-15917.19;5014408;28;51351;-67
2023/02/22 09:42:26;;;;;;;;;60.50;49.50;;;;;-147.17;100.00;-15917.19;5031935;28;51074;-67
2023/02/22 09:45:05;;;;;;;;;56.00;46.75;;;;;-147.17;100.00;-15917.19;5032242;28;51164;-67
2023/02/22 09:47:45;;;;;;;;;64.75;51.25;;;;;-147.17;100.00;-15917.19;5032437;28;51128;-67
2023/02/22 09:50:34;;;;;;;;;64.00;51.75;;;;;-147.17;100.00;-15917.19;5031845;28;50883;-67
2023/02/22 09:53:14;;;;;;;;;62.50;51.00;;;;;-147.17;100.00;-15917.19;5032315;28;51085;-69
2023/02/22 09:55:51;;;;;;;;;59.75;48.50;;;;;-147.17;100.00;-15917.19;5026756;28;50904;-67
2023/02/22 09:58:24;;;;;;;;;62.75;49.25;;;;;-147.17;100.00;-15917.19;5016001;28;51250;-67
2023/02/22 10:00:58;;;;;;;;;59.00;48.50;;;;;-147.17;100.00;-15917.19;5022802;28;52184;-67
2023/02/22 10:03:35;;;;;;;;;64.75;51.25;;;;;-147.17;100.00;-15917.19;4997457;28;51178;-66
2023/02/22 10:06:09;;;;;;;;;58.75;47.25;;;;;-147.17;100.00;-15917.19;5015781;28;50905;-66
2023/02/22 10:08:37;;;;;;;;;65.25;52.75;;;;;-147.17;100.00;-15917.19;5016127;28;51011;-65
2023/02/22 10:11:33;;;;;;;;;59.25;48.75;;;;;-147.17;100.00;-15917.19;5021663;28;51703;-68
2023/02/22 10:14:20;;;;;;;;;57.75;46.25;;;;;-147.17;100.00;-15917.19;5015450;28;51111;-67
2023/02/22 10:16:56;;;;;;;;;57.50;47.75;;;;;-147.17;100.00;-15917.19;5025110;28;51208;-68
2023/02/22 10:19:39;;;;;;;;;59.00;48.75;;;;;-147.17;100.00;-15917.19;5035367;28;51193;-67
2023/02/22 10:22:26;;;;;;;;;62.00;51.25;;;;;-147.17;100.00;-15917.19;5034866;28;51667;-68
2023/02/22 10:25:06;;;;;;;;;60.50;49.50;;;;;-147.17;100.00;-15917.19;5035304;28;51086;-69
2023/02/22 10:27:34;;;;;;;;;75.75;59.50;;;;;-147.17;100.00;-15917.19;5008124;28;51215;-67
2023/02/22 10:30:18;;;;;;;;;63.25;50.25;;;;;-147.17;100.00;-15917.19;5025568;28;51306;-68
2023/02/22 10:32:46;;;;;;;;;75.75;60.00;;;;;-147.17;100.00;-15917.19;5015111;28;51127;-66
2023/02/22 10:35:28;;;;;;;;;63.00;51.00;;;;;-147.17;100.00;-15917.19;5015332;28;51005;-66
2023/02/22 10:37:58;;;;;;;;;79.25;67.50;;;;;-147.17;100.00;-15917.19;5015247;28;51034;-66
2023/02/22 10:40:30;;;;;;;;;72.00;56.25;;;;;-147.17;100.00;-15917.19;5015187;28;51246;-67
2023/02/22 10:43:08;;;;;;;;;63.25;50.50;;;;;-147.17;100.00;-15917.19;5014695;28;52880;-66
2023/02/22 10:45:35;;;;;;;;;69.75;55.25;;;;;-147.17;100.00;-15917.19;4997029;28;51053;-65
2023/02/22 10:48:10;;;;;;;;;74.25;58.00;;;;;-147.17;100.00;-15917.19;5014970;28;51070;-67
2023/02/22 10:50:39;;;;;;;;;56.00;48.00;;;;;-147.17;100.00;-15917.19;4997092;28;51007;-67
2023/02/22 10:53:05;;;;;;;;;61.00;51.00;;;;;-147.17;100.00;-15917.19;5010091;28;51299;-68
2023/02/22 10:55:31;;;;;;;;;59.25;47.50;;;;;-147.17;100.00;-15917.19;5014643;28;51175;-66
2023/02/22 10:58:07;;;;;;;;;62.50;51.00;;;;;-147.17;100.00;-15917.19;5014762;28;51082;-67